Time;durP1;ratioP1;P1;durP2;ratioP2;P2;SDS_P1;SDS_P2;PMS_P1;PMS_P2;Temp;Humidity;BMP_temperature;BMP_pressure;BME280_temperature;BME280_humidity;BME280_pressure;Samples;Min_cycle;Max_cycle;Signal;HPM_P1;HPM_P2
2022/08/21 00:00:25;;;;;;;12.02;7.05;;;;;;;21.62;100.00;101549.91;5031621;28;20041;-47
2022/08/21 00:03:01;;;;;;;16.07;7.00;;;;;;;21.65;100.00;101553.22;5033346;28;20037;-45
2022/08/21 00:05:27;;;;;;;13.80;7.67;;;;;;;21.43;100.00;101554.84;5027824;28;20063;-47
2022/08/21 00:07:54;;;;;;;13.03;6.57;;;;;;;21.50;100.00;101551.94;5030765;28;20030;-49
2022/08/21 00:10:20;;;;;;;15.80;7.35;;;;;;;21.55;100.00;101548.44;5028495;28;20026;-47
2022/08/21 00:12:46;;;;;;;10.57;6.60;;;;;;;21.49;100.00;101544.84;5027607;28;20060;-47
2022/08/21 00:15:16;;;;;;;15.55;6.88;;;;;;;21.40;100.00;101549.06;5030372;28;20034;-51
2022/08/21 00:17:41;;;;;;;13.20;6.20;;;;;;;21.11;100.00;101546.47;5026721;28;20101;-50
2022/08/21 00:20:08;;;;;;;10.43;7.13;;;;;;;21.12;100.00;101543.53;5028397;28;20042;-49
2022/08/21 00:22:35;;;;;;;14.60;7.30;;;;;;;21.09;100.00;101548.63;5029810;28;20280;-46
2022/08/21 00:25:02;;;;;;;14.00;7.63;;;;;;;21.00;100.00;101548.22;5030746;28;20054;-49
2022/08/21 00:27:27;;;;;;;12.37;7.33;;;;;;;20.92;100.00;101546.75;5031940;28;20045;-47
2022/08/21 00:29:53;;;;;;;16.30;6.78;;;;;;;21.00;100.00;101553.66;5021025;28;20042;-48
2022/08/21 00:32:21;;;;;;;11.45;6.10;;;;;;;21.02;100.00;101548.78;5030523;28;20050;-51
2022/08/21 00:34:47;;;;;;;16.97;7.93;;;;;;;21.08;100.00;101552.44;5031792;28;20064;-45
2022/08/21 00:37:12;;;;;;;16.25;7.05;;;;;;;20.89;100.00;101552.69;5039212;28;20351;-48
2022/08/21 00:39:38;;;;;;;17.30;7.43;;;;;;;20.91;100.00;101547.81;5035055;28;21074;-52
2022/08/21 00:42:03;;;;;;;16.63;8.00;;;;;;;20.94;100.00;101555.47;5039321;28;20232;-50
2022/08/21 00:44:29;;;;;;;15.38;7.63;;;;;;;20.76;100.00;101554.63;5037370;28;20096;-50
2022/08/21 00:46:54;;;;;;;15.60;7.85;;;;;;;20.68;100.00;101548.78;5039328;28;20171;-49
2022/08/21 00:49:20;;;;;;;10.93;7.38;;;;;;;20.66;100.00;101551.75;5022336;28;20032;-48
2022/08/21 00:51:49;;;;;;;16.92;7.93;;;;;;;20.73;100.00;101549.66;5036517;28;20048;-46
2022/08/21 00:54:18;;;;;;;13.33;7.37;;;;;;;20.76;100.00;101554.63;5038650;28;20064;-46
2022/08/21 00:56:44;;;;;;;15.40;7.83;;;;;;;20.84;100.00;101541.72;5040395;28;20275;-50
2022/08/21 00:59:10;;;;;;;17.33;7.80;;;;;;;20.80;100.00;101546.81;5032690;28;20047;-48
2022/08/21 01:01:36;;;;;;;12.25;6.63;;;;;;;20.88;100.00;101540.16;5037530;28;20276;-47
2022/08/21 01:04:02;;;;;;;14.02;7.28;;;;;;;20.91;100.00;101545.09;5042025;28;20152;-47
2022/08/21 01:06:28;;;;;;;11.87;6.90;;;;;;;20.85;100.00;101536.03;5041261;28;20061;-51
2022/08/21 01:08:53;;;;;;;20.90;7.75;;;;;;;20.87;100.00;101541.22;5040490;28;20278;-46
2022/08/21 01:11:20;;;;;;;12.93;7.50;;;;;;;20.87;100.00;101533.88;5044174;28;20049;-48
2022/08/21 01:13:46;;;;;;;15.88;7.20;;;;;;;20.83;100.00;101538.19;5035468;28;20038;-48
2022/08/21 01:16:16;;;;;;;15.07;7.23;;;;;;;20.76;100.00;101548.38;5039825;28;20057;-56
2022/08/21 01:18:43;;;;;;;14.03;8.13;;;;;;;20.71;100.00;101538.22;5031334;28;20046;-49
2022/08/21 01:21:19;;;;;;;16.03;7.63;;;;;;;20.73;100.00;101538.00;5037140;28;20310;-46
2022/08/21 01:23:47;;;;;;;19.93;8.47;;;;;;;20.62;100.00;101537.00;5036876;28;20279;-47
2022/08/21 01:26:16;;;;;;;15.40;7.77;;;;;;;20.62;100.00;101537.00;5036366;28;20267;-47
2022/08/21 01:28:57;;;;;;;15.93;8.10;;;;;;;20.59;100.00;101540.22;5040711;28;20256;-45
2022/08/21 01:31:24;;;;;;;18.57;9.33;;;;;;;20.55;100.00;101536.34;5041255;28;20258;-50
2022/08/21 01:33:50;;;;;;;14.00;7.77;;;;;;;20.61;100.00;101538.06;5039230;28;20290;-48
2022/08/21 01:36:17;;;;;;;13.80;8.55;;;;;;;20.52;100.00;101537.66;5040668;28;20265;-49
2022/08/21 01:38:42;;;;;;;19.63;8.88;;;;;;;20.50;100.00;101547.94;5041531;28;20038;-46
2022/08/21 01:41:08;;;;;;;15.15;8.32;;;;;;;20.50;100.00;101547.94;5042775;28;20038;-47
2022/08/21 01:43:33;;;;;;;16.67;8.77;;;;;;;20.52;100.00;101543.09;5041472;28;20125;-51
2022/08/21 01:45:59;;;;;;;17.20;9.65;;;;;;;20.51;100.00;101529.72;5041956;28;20037;-47
2022/08/21 01:48:25;;;;;;;18.27;10.27;;;;;;;20.55;100.00;101545.31;5038258;28;20033;-47
2022/08/21 01:50:51;;;;;;;18.35;8.93;;;;;;;20.49;100.00;101535.44;5038648;28;20036;-50
2022/08/21 01:53:16;;;;;;;14.88;8.63;;;;;;;20.52;100.00;101536.81;5038458;28;20037;-48
2022/08/21 01:55:43;;;;;;;19.10;8.32;;;;;;;20.40;100.00;101537.72;5031831;28;20034;-53
2022/08/21 01:58:09;;;;;;;19.10;10.00;;;;;;;20.34;100.00;101534.09;5033747;28;20069;-48
2022/08/21 02:00:35;;;;;;;15.82;9.13;;;;;;;20.35;100.00;101534.91;5017909;28;20310;-48
2022/08/21 02:03:00;;;;;;;18.55;9.30;;;;;;;20.26;100.00;101528.22;5041374;28;20034;-49
2022/08/21 02:05:26;;;;;;;18.77;8.90;;;;;;;20.12;100.00;101536.69;5042850;28;20026;-47
2022/08/21 02:07:53;;;;;;;15.53;8.67;;;;;;;20.19;100.00;101529.19;5043215;28;20045;-49
2022/08/21 02:10:26;;;;;;;20.37;9.10;;;;;;;20.15;100.00;101525.31;5044457;28;20038;-46
2022/08/21 02:12:52;;;;;;;17.60;8.10;;;;;;;20.23;100.00;101526.84;5038198;28;20282;-48
2022/08/21 02:15:18;;;;;;;17.77;7.72;;;;;;;20.27;100.00;101524.44;5039391;28;20377;-47
2022/08/21 02:17:50;;;;;;;16.85;7.80;;;;;;;20.28;100.00;101526.06;5041422;28;20033;-46
2022/08/21 02:20:32;;;;;;;13.33;7.23;;;;;;;20.12;100.00;101522.25;5038332;28;20038;-46
2022/08/21 02:22:58;;;;;;;17.87;8.70;;;;;;;20.11;100.00;101520.63;5039496;28;20268;-49
2022/08/21 02:25:26;;;;;;;13.25;7.95;;;;;;;19.88;100.00;101517.75;5033691;28;20298;-47
2022/08/21 02:27:52;;;;;;;13.63;7.93;;;;;;;19.71;100.00;101516.84;5037684;28;20038;-48
2022/08/21 02:30:24;;;;;;;16.10;7.90;;;;;;;19.67;100.00;101516.50;5037335;28;20278;-48
2022/08/21 02:32:49;;;;;;;15.63;7.53;;;;;;;19.66;100.00;101520.28;5030774;28;20060;-52
2022/08/21 02:35:15;;;;;;;17.40;7.93;;;;;;;19.51;100.00;101517.25;5042341;28;20278;-48
2022/08/21 02:38:04;;;;;;;21.93;8.13;;;;;;;19.59;100.00;101519.59;5036063;28;20033;-52
2022/08/21 02:40:34;;;;;;;15.97;7.80;;;;;;;19.87;100.00;101515.25;5033364;28;20363;-49
2022/08/21 02:43:02;;;;;;;13.03;7.67;;;;;;;19.80;100.00;101514.59;5037284;28;20263;-47
2022/08/21 02:45:28;;;;;;;20.53;8.70;;;;;;;19.50;100.00;101511.00;5035231;28;20269;-46
2022/08/21 02:48:00;;;;;;;25.20;9.63;;;;;;;19.43;100.00;101510.31;5040084;28;20274;-48
2022/08/21 02:50:29;;;;;;;17.60;9.17;;;;;;;19.60;100.00;101511.19;5039063;28;20274;-50
2022/08/21 02:52:55;;;;;;;19.40;10.60;;;;;;;19.51;100.00;101507.22;5042081;28;20302;-47
2022/08/21 02:55:23;;;;;;;20.98;9.82;;;;;;;19.56;100.00;101509.22;5037242;28;20282;-48
2022/08/21 02:57:49;;;;;;;18.63;10.10;;;;;;;19.37;100.00;101498.53;5038559;28;20049;-45
2022/08/21 03:00:15;;;;;;;21.27;10.45;;;;;;;19.40;100.00;101497.25;5034927;28;20295;-49
2022/08/21 03:02:41;;;;;;;22.30;9.37;;;;;;;19.56;100.00;101503.81;5035475;28;20068;-49
2022/08/21 03:05:09;;;;;;;16.17;9.02;;;;;;;19.66;100.00;101506.72;5032494;28;20268;-47
2022/08/21 03:07:36;;;;;;;18.07;9.07;;;;;;;19.55;100.00;101502.16;5035294;28;20069;-49
2022/08/21 03:10:02;;;;;;;16.83;8.57;;;;;;;19.47;100.00;101501.44;5037647;28;20339;-46
2022/08/21 03:12:28;;;;;;;14.10;8.10;;;;;;;19.37;100.00;101500.41;5039566;28;20041;-49
2022/08/21 03:14:53;;;;;;;22.73;9.55;;;;;;;19.34;100.00;101501.72;5040016;28;20279;-47
2022/08/21 03:17:19;;;;;;;17.05;8.80;;;;;;;19.28;100.00;101508.09;5039992;28;20109;-46
2022/08/21 03:19:44;;;;;;;18.90;9.90;;;;;;;19.23;100.00;101491.69;5039776;28;20041;-46
2022/08/21 03:22:10;;;;;;;21.37;9.10;;;;;;;19.41;100.00;101490.75;5039162;28;20141;-46
2022/08/21 03:24:35;;;;;;;15.82;7.65;;;;;;;19.45;100.00;101494.63;5039559;28;20045;-47
2022/08/21 03:27:01;;;;;;;15.13;8.63;;;;;;;19.37;100.00;101494.97;5040396;28;20033;-48
2022/08/21 03:29:27;;;;;;;20.83;9.10;;;;;;;19.14;100.00;101492.06;5035654;28;20044;-49
2022/08/21 03:31:53;;;;;;;19.93;7.37;;;;;;;19.16;100.00;101489.13;5039817;28;20041;-47
2022/08/21 03:34:20;;;;;;;18.93;9.23;;;;;;;19.12;100.00;101483.34;5037678;28;20068;-46
2022/08/21 03:36:48;;;;;;;18.37;8.77;;;;;;;19.20;100.00;101479.47;5034073;28;20347;-46
2022/08/21 03:39:14;;;;;;;27.53;9.63;;;;;;;19.22;100.00;101477.34;5030418;28;20350;-46
2022/08/21 03:41:39;;;;;;;14.95;8.43;;;;;;;19.28;100.00;101470.13;5032585;28;20306;-48
2022/08/21 03:44:05;;;;;;;25.95;10.27;;;;;;;19.20;100.00;101468.63;5022408;28;20068;-46
2022/08/21 03:46:30;;;;;;;17.63;8.73;;;;;;;19.46;100.00;101466.44;5036978;28;20041;-46
2022/08/21 03:48:56;;;;;;;23.30;8.90;;;;;;;19.39;100.00;101468.47;5032160;28;20041;-51
2022/08/21 03:51:22;;;;;;;20.70;9.32;;;;;;;19.35;100.00;101470.81;5032571;28;20065;-45
2022/08/21 03:53:47;;;;;;;19.00;8.75;;;;;;;19.33;100.00;101465.63;5032168;28;20030;-48
2022/08/21 03:56:13;;;;;;;20.65;8.93;;;;;;;19.29;100.00;101464.47;5031729;28;20110;-48
2022/08/21 03:58:39;;;;;;;16.35;8.77;;;;;;;19.30;100.00;101474.25;5032692;28;20038;-46
2022/08/21 04:01:06;;;;;;;18.17;8.85;;;;;;;19.44;100.00;101471.28;5031862;28;20061;-46
2022/08/21 04:03:33;;;;;;;20.40;8.23;;;;;;;19.32;100.00;101472.13;5030977;28;20119;-52
2022/08/21 04:05:59;;;;;;;21.50;8.33;;;;;;;19.35;100.00;101474.34;5032463;28;20048;-51
2022/08/21 04:08:24;;;;;;;23.15;8.63;;;;;;;19.42;100.00;101481.53;5031736;28;20278;-49
2022/08/21 04:10:53;;;;;;;19.88;9.85;;;;;;;19.32;100.00;101476.72;5031318;28;20038;-47
2022/08/21 04:13:20;;;;;;;13.63;7.20;;;;;;;19.34;100.00;101482.72;5030201;28;20021;-46
2022/08/21 04:15:46;;;;;;;17.60;8.07;;;;;;;19.38;100.00;101486.63;5030755;28;20322;-49
2022/08/21 04:18:12;;;;;;;18.98;8.00;;;;;;;19.37;100.00;101481.41;5031141;28;20267;-47
2022/08/21 04:20:39;;;;;;;14.77;8.10;;;;;;;19.29;100.00;101479.91;5032518;28;20061;-51
2022/08/21 04:23:05;;;;;;;17.27;7.87;;;;;;;19.26;100.00;101477.66;5034679;28;20034;-46
2022/08/21 04:25:31;;;;;;;20.67;8.30;;;;;;;19.28;100.00;101487.22;5035996;28;20271;-53
2022/08/21 04:27:57;;;;;;;22.33;8.70;;;;;;;19.18;100.00;101484.31;5036849;28;20290;-47
2022/08/21 04:30:23;;;;;;;;;;;;;;;19.09;100.00;101485.69;5036693;28;20026;-52
2022/08/21 04:32:50;;;;;;;14.67;8.03;;;;;;;18.96;100.00;101479.44;5035800;28;19920;-46
2022/08/21 04:35:20;;;;;;;16.87;8.87;;;;;;;18.90;100.00;101492.06;5033903;28;20045;-46
2022/08/21 04:37:46;;;;;;;17.97;8.27;;;;;;;18.99;100.00;101489.84;5023762;28;20295;-51
2022/08/21 04:40:14;;;;;;;15.50;8.05;;;;;;;18.81;100.00;101487.22;5035378;28;20279;-46
2022/08/21 04:42:49;;;;;;;21.50;8.57;;;;;;;18.86;100.00;101490.88;5035717;28;20050;-48
2022/08/21 04:45:36;;;;;;;16.63;7.30;;;;;;;18.72;100.00;101493.00;5027359;28;20281;-48
2022/08/21 04:48:06;;;;;;;17.05;8.05;;;;;;;18.84;100.00;101494.88;5034874;28;20282;-51
2022/08/21 04:51:04;;;;;;;22.47;8.47;;;;;;;18.88;100.00;101496.03;5034612;28;20040;-48
2022/08/21 04:53:38;;;;;;;19.93;7.70;;;;;;;18.82;100.00;101495.13;5029460;28;20285;-50
2022/08/21 04:56:14;;;;;;;17.60;8.20;;;;;;;18.84;100.00;101490.28;5032728;28;20274;-45
2022/08/21 04:58:41;;;;;;;16.50;7.43;;;;;;;18.61;100.00;101499.22;5035066;28;20303;-47
2022/08/21 05:01:13;;;;;;;17.17;7.20;;;;;;;18.60;100.00;101498.41;5025777;28;20266;-49
2022/08/21 05:03:40;;;;;;;19.33;7.17;;;;;;;18.58;100.00;101499.69;5035696;28;20272;-48
2022/08/21 05:06:10;;;;;;;17.77;6.63;;;;;;;18.48;100.00;101492.97;5034478;28;20327;-49
2022/08/21 05:08:36;;;;;;;13.47;6.33;;;;;;;18.52;100.00;101495.19;5034454;28;20288;-47
2022/08/21 05:11:03;;;;;;;17.10;6.50;;;;;;;18.51;100.00;101496.25;5034903;28;20263;-47
2022/08/21 05:13:29;;;;;;;22.33;7.53;;;;;;;18.52;100.00;101497.91;5033732;28;20272;-48
2022/08/21 05:15:55;;;;;;;19.38;8.52;;;;;;;18.55;100.00;101506.38;5034809;28;20363;-47
2022/08/21 05:18:21;;;;;;;18.00;7.38;;;;;;;18.66;100.00;101512.06;5040980;28;20037;-47
2022/08/21 05:20:46;;;;;;;19.63;6.83;;;;;;;18.66;100.00;101515.56;5034636;28;20189;-49
2022/08/21 05:23:14;;;;;;;15.77;6.43;;;;;;;18.51;100.00;101517.94;5034872;28;20038;-50
2022/08/21 05:25:40;;;;;;;23.40;7.23;;;;;;;18.72;100.00;101522.78;5033268;28;20068;-50
2022/08/21 05:28:06;;;;;;;18.70;7.70;;;;;;;18.77;100.00;101525.63;5033779;28;20260;-47
2022/08/21 05:30:34;;;;;;;23.35;7.75;;;;;;;18.58;100.00;101526.75;5034233;28;20073;-49
2022/08/21 05:33:01;;;;;;;16.37;7.33;;;;;;;18.64;100.00;101520.41;5034874;28;20060;-49
2022/08/21 05:35:28;;;;;;;18.63;8.20;;;;;;;18.56;100.00;101524.28;5030736;28;20339;-49
2022/08/21 05:37:54;;;;;;;17.83;7.67;;;;;;;18.46;100.00;101524.88;5034145;28;20295;-50
2022/08/21 05:40:20;;;;;;;18.63;8.07;;;;;;;18.61;100.00;101520.88;5032629;28;20303;-49
2022/08/21 05:42:46;;;;;;;21.67;9.50;;;;;;;18.69;100.00;101528.69;5034851;28;20045;-44
2022/08/21 05:45:12;;;;;;;19.50;9.57;;;;;;;18.73;100.00;101529.84;5034713;28;20085;-47
2022/08/21 05:47:37;;;;;;;25.77;8.35;;;;;;;18.72;100.00;101528.22;5035344;28;20097;-51
2022/08/21 05:50:04;;;;;;;20.15;8.18;;;;;;;18.66;100.00;101526.41;5035748;28;20033;-52
2022/08/21 05:52:29;;;;;;;31.75;10.30;;;;;;;18.70;100.00;101530.34;5032832;28;20049;-46
2022/08/21 05:54:55;;;;;;;20.77;8.50;;;;;;;18.75;100.00;101514.19;5036785;28;20081;-49
2022/08/21 05:57:21;;;;;;;22.57;8.60;;;;;;;18.87;100.00;101525.03;5032531;28;20037;-49
2022/08/21 05:59:47;;;;;;;;;;;;;;;18.75;100.00;101533.16;5035314;28;20029;-47
2022/08/21 06:02:14;;;;;;;29.43;11.07;;;;;;;18.95;100.00;101521.16;5034576;28;19921;-47
2022/08/21 06:04:40;;;;;;;24.92;8.80;;;;;;;18.99;100.00;101522.38;5033329;28;20267;-47
2022/08/21 06:07:06;;;;;;;26.17;9.50;;;;;;;18.88;100.00;101525.84;5032958;28;20038;-47
2022/08/21 06:09:32;;;;;;;18.88;9.23;;;;;;;19.26;100.00;101521.88;5034224;28;20124;-50
2022/08/21 06:12:03;;;;;;;17.67;7.97;;;;;;;19.13;100.00;101524.81;5033872;28;20041;-47
2022/08/21 06:14:29;;;;;;;20.47;7.57;;;;;;;18.95;100.00;101528.44;5033006;28;20026;-50
2022/08/21 06:16:54;;;;;;;22.38;8.40;;;;;;;19.22;100.00;101531.56;5034612;28;20354;-51
2022/08/21 06:19:20;;;;;;;18.60;8.68;;;;;;;19.46;100.00;101531.53;5033010;28;20041;-51
2022/08/21 06:21:45;;;;;;;18.57;7.77;;;;;;;19.31;100.00;101527.41;5035268;28;20102;-48
2022/08/21 06:24:11;;;;;;;17.83;7.82;;;;;;;19.41;100.00;101528.72;5034120;28;20026;-50
2022/08/21 06:26:36;;;;;;;19.20;8.02;;;;;;;19.49;100.00;101531.06;5032861;28;20057;-53
2022/08/21 06:29:02;;;;;;;19.35;7.82;;;;;;;19.45;100.00;101535.31;5032194;28;20034;-51
2022/08/21 06:31:28;;;;;;;19.45;7.35;;;;;;;19.31;100.00;101532.84;5031373;28;20053;-50
2022/08/21 06:33:54;;;;;;;22.60;8.73;;;;;;;19.69;100.00;101525.22;5036540;28;20064;-47
2022/08/21 06:36:20;;;;;;;22.50;7.90;;;;;;;19.28;100.00;101529.78;5037876;28;20030;-46
2022/08/21 06:38:46;;;;;;;29.45;8.43;;;;;;;19.71;100.00;101536.66;5042094;28;20033;-48
2022/08/21 06:41:12;;;;;;;15.38;7.65;;;;;;;19.82;100.00;101537.69;5042057;28;20038;-50
2022/08/21 06:43:38;;;;;;;25.57;8.20;;;;;;;19.67;100.00;101531.97;5036997;28;20057;-50
2022/08/21 06:46:03;;;;;;;18.58;8.15;;;;;;;19.65;100.00;101528.66;5038875;28;20057;-49
2022/08/21 06:48:31;;;;;;;21.63;8.32;;;;;;;19.80;100.00;101537.09;5038224;28;20034;-46
2022/08/21 06:50:58;;;;;;;18.27;8.10;;;;;;;19.76;100.00;101541.38;5040689;28;20038;-47
2022/08/21 06:53:23;;;;;;;22.33;8.63;;;;;;;19.83;100.00;101542.03;5039314;28;20313;-49
2022/08/21 06:55:49;;;;;;;19.17;8.43;;;;;;;19.68;100.00;101528.19;5038557;28;20034;-48
2022/08/21 06:58:16;;;;;;;29.80;11.65;;;;;;;19.87;100.00;101537.81;5041387;28;20064;-49
2022/08/21 07:00:45;;;;;;;22.57;8.53;;;;;;;19.86;100.00;101538.03;5038038;28;20041;-49
2022/08/21 07:03:27;;;;;;;19.93;8.30;;;;;;;19.91;100.00;101533.56;5041566;28;20033;-48
2022/08/21 07:05:53;;;;;;;33.10;8.67;;;;;;;20.60;100.00;101531.00;5035512;28;20355;-48
2022/08/21 07:08:19;;;;;;;19.10;8.07;;;;;;;20.44;100.00;101530.72;5037595;28;20040;-49
2022/08/21 07:10:45;;;;;;;16.58;7.45;;;;;;;20.15;100.00;101524.50;5033522;28;20026;-49
2022/08/21 07:13:10;;;;;;;23.92;8.20;;;;;;;20.02;100.00;101536.47;5039825;28;20037;-46
2022/08/21 07:15:36;;;;;;;21.23;8.05;;;;;;;20.47;100.00;101530.22;5034742;28;20034;-47
2022/08/21 07:18:02;;;;;;;19.38;7.93;;;;;;;20.92;100.00;101525.00;5037755;28;20033;-46
2022/08/21 07:20:29;;;;;;;20.83;8.00;;;;;;;20.78;100.00;101530.75;5038588;28;20059;-52
2022/08/21 07:23:00;;;;;;;16.83;7.70;;;;;;;20.57;100.00;101526.84;5036520;28;20033;-47
2022/08/21 07:25:26;;;;;;;17.23;7.33;;;;;;;20.81;100.00;101525.91;5031943;28;20036;-48
2022/08/21 07:27:52;;;;;;;20.88;7.90;;;;;;;20.63;100.00;101527.78;5032857;28;20048;-49
2022/08/21 07:30:19;;;;;;;26.87;8.37;;;;;;;20.43;100.00;101534.50;5035065;28;20034;-47
2022/08/21 07:32:45;;;;;;;19.73;8.90;;;;;;;21.04;100.00;101522.19;5039377;28;20026;-46
2022/08/21 07:35:11;;;;;;;22.75;7.15;;;;;;;21.12;100.00;101518.22;5031646;28;20054;-53
2022/08/21 07:37:37;;;;;;;21.85;7.82;;;;;;;21.20;100.00;101525.94;5030421;28;20052;-52
2022/08/21 07:40:04;;;;;;;24.55;7.38;;;;;;;21.28;100.00;101514.66;5030959;28;20038;-48
2022/08/21 07:42:29;;;;;;;23.90;7.18;;;;;;;21.24;100.00;101515.38;5032127;28;20049;-48
2022/08/21 07:44:55;;;;;;;20.88;7.03;;;;;;;21.34;100.00;101519.06;5034601;28;20037;-49
2022/08/21 07:47:21;;;;;;;22.55;6.65;;;;;;;21.30;100.00;101526.09;5031207;28;20030;-48
2022/08/21 07:49:46;;;;;;;20.70;6.32;;;;;;;21.41;100.00;101531.66;5029970;28;20056;-51
2022/08/21 07:52:19;;;;;;;29.20;8.57;;;;;;;21.90;100.00;101522.75;5032327;28;20664;-50
2022/08/21 07:54:45;;;;;;;26.23;6.60;;;;;;;21.81;100.00;101527.84;5029897;28;20034;-50
2022/08/21 07:57:11;;;;;;;20.35;6.57;;;;;;;21.66;100.00;101525.75;5027856;28;20026;-50
2022/08/21 07:59:36;;;;;;;19.83;6.75;;;;;;;21.56;100.00;101528.31;5030472;28;20105;-50
2022/08/21 08:02:02;;;;;;;16.58;6.60;;;;;;;21.57;100.00;101519.91;5014915;28;20033;-47
2022/08/21 08:04:27;;;;;;;23.73;7.53;;;;;;;22.02;100.00;101530.78;5029968;28;20044;-47
2022/08/21 08:06:53;;;;;;;16.80;5.95;;;;;;;21.80;100.00;101531.63;5015514;28;20069;-49
2022/08/21 08:09:18;;;;;;;17.02;6.50;;;;;;;21.67;100.00;101523.84;5030717;28;20042;-48
2022/08/21 08:11:44;;;;;;;15.73;5.10;;;;;;;22.02;100.00;101528.06;5029989;28;20041;-49
2022/08/21 08:14:10;;;;;;;26.52;6.47;;;;;;;22.09;100.00;101517.78;5031259;28;20042;-51
2022/08/21 08:16:35;;;;;;;17.05;5.28;;;;;;;22.29;100.00;101511.72;5031290;28;20104;-48
2022/08/21 08:19:03;;;;;;;19.30;5.43;;;;;;;22.29;100.00;101510.88;5031086;28;20110;-52
2022/08/21 08:21:28;;;;;;;17.50;5.67;;;;;;;22.23;100.00;101509.22;5027799;28;20041;-48
2022/08/21 08:23:54;;;;;;;22.13;5.93;;;;;;;22.27;100.00;101505.72;5029499;28;20061;-49
2022/08/21 08:26:19;;;;;;;22.95;4.82;;;;;;;22.30;100.00;101505.19;5026226;28;20033;-50
2022/08/21 08:28:47;;;;;;;22.70;5.90;;;;;;;22.47;100.00;101512.44;5028011;28;20089;-50
2022/08/21 08:31:13;;;;;;;19.10;5.50;;;;;;;22.59;100.00;101512.25;5026227;28;20049;-49
2022/08/21 08:33:39;;;;;;;20.35;5.13;;;;;;;22.81;100.00;101516.78;5023942;28;20048;-49
2022/08/21 08:36:05;;;;;;;21.50;5.30;;;;;;;22.86;100.00;101512.19;5035394;28;20030;-46
2022/08/21 08:38:30;;;;;;;;;;;;;;;22.89;100.00;101519.84;5033502;28;20095;-48
2022/08/21 08:41:12;;;;;;;18.37;5.20;;;;;;;22.45;100.00;101509.97;5030782;28;19913;-48
2022/08/21 08:43:40;;;;;;;16.97;4.87;;;;;;;22.65;100.00;101515.84;5037700;28;20045;-51
2022/08/21 08:46:13;;;;;;;17.23;4.97;;;;;;;22.86;100.00;101516.84;5031128;28;20059;-49
2022/08/21 08:48:59;;;;;;;23.83;4.97;;;;;;;22.67;100.00;101516.41;5037908;28;20069;-51
2022/08/21 08:51:55;;;;;;;25.25;4.28;;;;;;;22.77;100.00;101509.13;5035392;28;20033;-48
2022/08/21 08:54:33;;;;;;;18.73;4.40;;;;;;;22.85;100.00;101509.75;5007033;28;20052;-51
2022/08/21 08:57:01;;;;;;;15.10;4.30;;;;;;;23.20;100.00;101511.03;5037498;28;20097;-50
2022/08/21 08:59:38;;;;;;;13.53;4.17;;;;;;;23.16;100.00;101509.94;5033566;28;20034;-46
2022/08/21 09:02:05;;;;;;;22.30;4.20;;;;;;;23.89;100.00;101511.06;5033661;28;20101;-49
2022/08/21 09:04:31;;;;;;;16.43;4.30;;;;;;;23.81;100.00;101503.38;5034077;28;20046;-50
2022/08/21 09:07:00;;;;;;;;;;;;;;;24.31;100.00;101501.03;5041889;28;20041;-52
2022/08/21 09:09:46;;;;;;;19.63;7.70;;;;;;;24.86;100.00;101500.47;5035605;28;19912;-49
2022/08/21 09:12:24;;;;;;;15.15;3.97;;;;;;;24.52;100.00;101501.06;5037061;28;20025;-51
2022/08/21 09:15:33;;;;;;;19.53;7.93;;;;;;;24.94;100.00;101507.31;5041102;28;20032;-50
2022/08/21 09:18:27;;;;;;;12.00;3.53;;;;;;;24.88;100.00;101512.78;5037622;28;20076;-51
2022/08/21 09:21:50;;;;;;;13.70;4.13;;;;;;;25.30;100.00;101497.06;5039237;28;20049;-54
2022/08/21 09:24:29;;;;;;;15.93;3.80;;;;;;;25.67;100.00;101502.44;4988540;28;20038;-51
2022/08/21 09:27:13;;;;;;;11.70;2.93;;;;;;;25.80;100.00;101507.28;4982836;28;20031;-53
2022/08/21 09:29:43;;;;;;;10.93;3.20;;;;;;;26.51;100.00;101515.31;5035550;28;20049;-49
2022/08/21 09:32:23;;;;;;;9.87;3.50;;;;;;;26.64;100.00;101502.84;5040739;28;20035;-48
2022/08/21 09:34:57;;;;;;;16.27;3.80;;;;;;;26.29;100.00;101510.25;5034781;28;20049;-52
2022/08/21 09:37:24;;;;;;;13.97;3.40;;;;;;;26.95;100.00;101510.78;5033282;28;20025;-50
2022/08/21 09:39:49;;;;;;;12.70;3.17;;;;;;;27.11;100.00;101516.13;5030718;28;20074;-49
2022/08/21 09:42:24;;;;;;;14.97;3.20;;;;;;;27.55;100.00;101527.97;5031707;28;20053;-47
2022/08/21 09:45:06;;;;;;;12.17;2.97;;;;;;;27.51;100.00;101518.66;5034419;28;20030;-46
2022/08/21 09:47:31;;;;;;;18.80;4.18;;;;;;;27.73;100.00;101523.63;5034436;28;20088;-48
2022/08/21 09:50:08;;;;;;;19.98;8.90;;;;;;;27.46;100.00;101523.09;5020345;28;20045;-49
2022/08/21 09:52:34;;;;;;;16.67;3.55;;;;;;;27.02;100.00;101519.50;5031904;28;20044;-51
2022/08/21 09:54:59;;;;;;;;;;;;;;;27.08;100.00;101519.44;5035086;28;20049;-52
2022/08/21 09:57:42;;;;;;;17.97;3.90;;;;;;;26.83;100.00;101510.34;5033635;28;19913;-50
2022/08/21 10:00:19;;;;;;;10.43;2.40;;;;;;;26.68;100.00;101520.34;5033111;28;20094;-51
2022/08/21 10:02:44;;;;;;;;;;;;;;;28.23;100.00;101516.88;5034051;28;20507;-49
2022/08/21 10:05:24;;;;;;;9.73;2.67;;;;;;;29.11;100.00;101521.66;5037957;28;19924;-51
2022/08/21 10:07:51;;;;;;;17.17;2.72;;;;;;;29.37;100.00;101521.13;5031039;28;20033;-48
2022/08/21 10:10:25;;;;;;;15.20;3.05;;;;;;;30.30;100.00;101512.78;5033320;28;20041;-47
2022/08/21 10:13:13;;;;;;;9.52;2.45;;;;;;;30.17;100.00;101522.75;5030684;28;20093;-47
2022/08/21 10:15:39;;;;;;;12.38;3.47;;;;;;;29.79;100.00;101526.63;5032267;28;20041;-50
2022/08/21 10:18:29;;;;;;;10.10;2.60;;;;;;;29.30;100.00;101518.81;5030258;28;20045;-51
2022/08/21 10:21:10;;;;;;;11.70;3.03;;;;;;;28.58;100.00;101522.88;5033213;28;20111;-50
2022/08/21 10:23:48;;;;;;;10.32;2.33;;;;;;;29.17;100.00;101517.69;5033340;28;20041;-50
2022/08/21 10:26:28;;;;;;;10.98;2.35;;;;;;;30.56;100.00;101523.16;5032733;28;20038;-48
2022/08/21 10:29:27;;;;;;;12.05;2.67;;;;;;;31.93;92.79;101523.44;5031041;28;20097;-50
2022/08/21 10:32:12;;;;;;;12.85;2.60;;;;;;;29.62;100.00;101528.09;5032107;28;20042;-49
2022/08/21 10:35:09;;;;;;;9.05;2.72;;;;;;;28.47;100.00;101512.06;5031552;28;20042;-50
2022/08/21 10:37:38;;;;;;;8.70;2.20;;;;;;;28.40;100.00;101511.66;5022709;28;20049;-47
2022/08/21 10:40:13;;;;;;;11.65;3.08;;;;;;;27.62;100.00;101503.72;5034753;28;20057;-51
2022/08/21 10:42:55;;;;;;;8.25;2.33;;;;;;;28.57;100.00;101508.31;5030136;28;20208;-50
2022/08/21 10:45:50;;;;;;;8.35;2.38;;;;;;;29.89;100.00;101507.09;5032399;28;20038;-48
2022/08/21 10:48:24;;;;;;;11.05;2.58;;;;;;;30.99;100.00;101514.28;5033726;28;20040;-48
2022/08/21 10:51:15;;;;;;;16.67;2.60;;;;;;;29.93;100.00;101503.69;5024471;28;20036;-48
2022/08/21 10:53:51;;;;;;;12.00;2.95;;;;;;;29.52;100.00;101508.19;5027509;28;20022;-47
2022/08/21 10:56:22;;;;;;;12.70;2.33;;;;;;;29.86;100.00;101496.69;5031227;28;20059;-51
2022/08/21 10:59:07;;;;;;;14.77;2.90;;;;;;;29.74;100.00;101508.25;5030700;28;20057;-51
2022/08/21 11:01:54;;;;;;;29.50;11.07;;;;;;;30.56;100.00;101496.34;5031277;28;20025;-50
2022/08/21 11:04:41;;;;;;;7.45;2.00;;;;;;;29.32;100.00;101501.97;5033063;28;20255;-51
2022/08/21 11:07:19;;;;;;;9.30;2.30;;;;;;;29.45;100.00;101500.34;5034669;28;20041;-51
2022/08/21 11:09:48;;;;;;;10.85;2.28;;;;;;;30.04;99.67;101505.13;5032740;28;20029;-50
2022/08/21 11:12:38;;;;;;;6.95;2.20;;;;;;;31.93;86.21;101500.53;5033834;28;20098;-50
2022/08/21 11:15:34;;;;;;;7.97;1.67;;;;;;;32.30;75.94;101503.75;5034888;28;20034;-55
2022/08/21 11:18:09;;;;;;;9.93;1.83;;;;;;;32.74;65.84;101500.88;5030599;28;20030;-52
2022/08/21 11:20:50;;;;;;;7.25;2.05;;;;;;;34.44;61.86;101504.56;5032278;28;20110;-49
2022/08/21 11:23:20;;;;;;;11.23;1.92;;;;;;;33.07;64.95;101508.56;5031776;28;20034;-48